Brownfield, ME

11:27 PM EDT on April 17, 2015 (GMT -0400)
Portland International | | Change Station
CLOSE
Current Station
Airport
Location: Portland,
Elevation: 62 ft
Nearby Weather Stations

Elev 62 ft 43.64 °N, 70.30 °W | Updated 36 minutes ago

Clear
Clear
56 °F
Feels Like 56 °F
N
6
Wind Variable Wind from West

Today
High -- | Low -- °F
--% Chance of Precip.
Yesterday
High -- | Low -- °F
Precip. -- in
5:57 AM 7:29 PM
Waning Crescent, 1% visible
Pressure 29.85 in
Visibility 10.0 miles
Clouds Few 20000 ft
Dew Point 43 °F
Humidity 62%
Rainfall 0.11 in
Snow Depth Not available.
UV 0 out of 12
Pollen 5.70 out of 12
Air Quality Not available.
Flu Activity Regional
METAR KPWM 180251Z 26005KT 10SM FEW200 13/06 A2985 RMK AO2 SLP108 T01330061 51009

More Conditions Fewer Conditions

Pressure 29.85 in
Visibility 10.0 miles
Clouds Few 20000 ft
Dew Point 43 °F
Humidity 62%
Rainfall 0.11 in
Snow Depth Not available.
UV 0 out of 12
Pollen 5.70 out of 12
Air Quality Not available.
Flu Activity Regional
METAR KPWM 180251Z 26005KT 10SM FEW200 13/06 A2985 RMK AO2 SLP108 T01330061 51009

More Conditions Fewer Conditions

10-Day Weather Forecast

Almanac

Astronomy

Apr. 17, 2015 Rise Set
Actual Time
Civil Twilight
Nautical Twilight
Astronomical Twilight
Moon
Length of Visible Light
Length of Day
Tomorrow will be .
, % of the Moon is Illuminated

Today's Extremes

State Highs State Lows

Community

WunderPhotos

Upload Photos

1,814,315 photos uploaded!

WunderBlogs® & News

Nearby

Air Quality

  Air Quality AQ Index Pollutant
Not available.

Snow Depth

Station Depth Elevation

Earthquake Activity

City Distance Mag. Time & Date
Minimum magnitude displayed is 2.5.

Coastal Water Temperatures

Place Temperature

Stations

Nearby Weather Stations

Station Location Temp. Windchill Dew Point Humidity Wind Precip. Elev Updated Type